createdAt,value
2023-10-11T00:02:07.098Z,8.01
2023-10-11T00:04:43.368Z,8.08
2023-10-11T00:07:21.712Z,8.13
2023-10-11T00:09:58.374Z,8.19
2023-10-11T00:12:35.101Z,8.23
2023-10-11T00:15:14.452Z,8.26
2023-10-11T00:17:50.782Z,8.28
2023-10-11T00:20:32.997Z,8.30
2023-10-11T00:23:09.616Z,8.32
2023-10-11T00:25:46.524Z,8.32
2023-10-11T00:28:25.746Z,8.31
2023-10-11T00:31:04.878Z,8.30
2023-10-11T00:33:41.531Z,8.28
2023-10-11T00:36:25.951Z,8.26
2023-10-11T00:39:03.018Z,8.24
2023-10-11T00:41:42.121Z,8.22
2023-10-11T00:44:21.834Z,8.21
2023-10-11T00:47:01.468Z,8.21
2023-10-11T00:49:41.576Z,8.19
2023-10-11T00:52:17.876Z,8.18
2023-10-11T00:54:54.463Z,8.16
2023-10-11T00:57:31.299Z,8.14
2023-10-11T01:00:14.312Z,8.14
2023-10-11T01:02:54.012Z,8.14
2023-10-11T01:05:34.240Z,8.14
2023-10-11T01:08:12.121Z,8.14
2023-10-11T01:10:48.423Z,8.14
2023-10-11T01:13:24.858Z,8.14
2023-10-11T01:16:01.223Z,8.15
2023-10-11T01:18:37.685Z,8.16
2023-10-11T01:21:15.029Z,8.18
2023-10-11T01:23:51.661Z,8.20
2023-10-11T01:26:29.052Z,8.22
2023-10-11T01:29:07.490Z,8.25
2023-10-11T01:31:44.602Z,8.29
2023-10-11T01:34:22.119Z,8.32
2023-10-11T01:36:59.198Z,8.37
2023-10-11T01:39:35.397Z,8.42
2023-10-11T01:42:12.032Z,8.46
2023-10-11T01:44:51.124Z,8.50
2023-10-11T01:47:28.060Z,8.56
2023-10-11T01:50:05.710Z,8.60
2023-10-11T01:52:41.951Z,8.64
2023-10-11T01:55:19.002Z,8.69
2023-10-11T01:57:55.266Z,8.73
2023-10-11T02:00:33.571Z,8.77
2023-10-11T02:03:15.181Z,8.82
2023-10-11T02:05:52.128Z,8.87
2023-10-11T02:08:29.005Z,8.90
2023-10-11T02:11:06.868Z,8.94
2023-10-11T02:13:43.576Z,8.96
2023-10-11T02:16:20.044Z,9.00
2023-10-11T02:19:00.414Z,9.02
2023-10-11T02:21:38.240Z,9.04
2023-10-11T02:24:16.390Z,9.06
2023-10-11T02:26:56.317Z,9.09
2023-10-11T02:29:36.728Z,9.11
2023-10-11T02:32:13.281Z,9.14
2023-10-11T02:34:51.026Z,9.17
2023-10-11T02:37:30.873Z,9.20
2023-10-11T02:40:09.814Z,9.24
2023-10-11T02:42:50.517Z,9.27
2023-10-11T02:45:27.387Z,9.31
2023-10-11T02:48:03.851Z,9.34
2023-10-11T02:50:42.899Z,9.37
2023-10-11T02:53:26.355Z,9.41
2023-10-11T02:56:05.521Z,9.44
2023-10-11T02:58:41.981Z,9.46
2023-10-11T03:01:22.548Z,9.49
2023-10-11T03:04:02.821Z,9.52
2023-10-11T03:06:39.380Z,9.55
2023-10-11T03:09:19.940Z,9.58
2023-10-11T03:11:58.569Z,9.60
2023-10-11T03:14:42.559Z,9.63
2023-10-11T03:17:21.328Z,9.67
2023-10-11T03:19:57.639Z,9.70
2023-10-11T03:22:36.463Z,9.73
2023-10-11T03:25:20.014Z,9.76
2023-10-11T03:27:56.335Z,9.80
2023-10-11T03:30:36.591Z,9.82
2023-10-11T03:33:13.456Z,9.85
2023-10-11T03:35:52.389Z,9.87
2023-10-11T03:38:33.814Z,9.89
2023-10-11T03:41:16.532Z,9.90
2023-10-11T03:43:56.007Z,9.92
2023-10-11T03:46:35.504Z,9.94
2023-10-11T03:49:31.932Z,9.95
2023-10-11T03:52:17.937Z,9.98
2023-10-11T03:55:02.467Z,10.00
2023-10-11T03:57:43.240Z,10.03
2023-10-11T04:00:29.960Z,10.05
2023-10-11T04:03:07.582Z,10.08
2023-10-11T04:05:46.409Z,10.11
2023-10-11T04:08:26.292Z,10.13
2023-10-11T04:11:07.084Z,10.16
2023-10-11T04:13:46.830Z,10.19
2023-10-11T04:16:24.950Z,10.21
2023-10-11T04:19:05.014Z,10.24
2023-10-11T04:21:55.779Z,10.25
2023-10-11T04:24:37.649Z,10.29
2023-10-11T04:27:31.831Z,10.31
2023-10-11T04:30:25.129Z,10.34
2023-10-11T04:33:03.353Z,10.37
2023-10-11T04:35:43.804Z,10.38
2023-10-11T04:38:22.085Z,10.40
2023-10-11T04:41:03.485Z,10.43
2023-10-11T04:43:41.639Z,10.44
2023-10-11T04:46:18.370Z,10.47
2023-10-11T04:49:09.420Z,10.49
2023-10-11T04:51:47.962Z,10.52
2023-10-11T04:54:37.066Z,10.55
2023-10-11T04:57:19.375Z,10.57
2023-10-11T05:00:01.327Z,10.60
2023-10-11T05:02:39.468Z,10.61
2023-10-11T05:05:20.734Z,10.64
2023-10-11T05:08:15.682Z,10.66
2023-10-11T05:10:54.128Z,10.69
2023-10-11T05:13:37.719Z,10.71
2023-10-11T05:16:18.662Z,10.73
2023-10-11T05:18:55.043Z,10.76
2023-10-11T05:21:39.545Z,10.78
2023-10-11T05:24:34.827Z,10.81
2023-10-11T05:27:34.140Z,10.84
2023-10-11T05:30:17.779Z,10.87
2023-10-11T05:32:56.230Z,10.90
2023-10-11T05:36:06.111Z,10.94
2023-10-11T05:38:59.926Z,10.99
2023-10-11T05:42:08.241Z,11.05
2023-10-11T05:45:02.972Z,11.15
2023-10-11T05:47:59.541Z,11.25
2023-10-11T05:50:57.523Z,11.34
2023-10-11T05:53:34.155Z,11.45
2023-10-11T05:56:22.136Z,11.59
2023-10-11T05:58:59.448Z,11.73
2023-10-11T06:01:36.288Z,11.85
2023-10-11T06:04:15.669Z,11.98
2023-10-11T06:06:59.114Z,12.14
2023-10-11T06:09:40.554Z,12.29
2023-10-11T06:12:28.417Z,12.39
2023-10-11T06:15:17.090Z,12.48
2023-10-11T06:17:56.522Z,12.56
2023-10-11T06:20:40.214Z,12.64
2023-10-11T06:23:16.715Z,12.74
2023-10-11T06:25:54.579Z,12.84
2023-10-11T06:28:33.621Z,12.95
2023-10-11T06:31:10.197Z,13.05
2023-10-11T06:33:47.139Z,13.16
2023-10-11T06:36:23.614Z,13.29
2023-10-11T06:39:00.373Z,13.45
2023-10-11T06:41:47.030Z,13.64
2023-10-11T06:44:23.925Z,13.87
2023-10-11T06:47:04.703Z,14.09
2023-10-11T06:49:45.722Z,14.31
2023-10-11T06:52:26.540Z,14.50
2023-10-11T06:55:18.355Z,14.67
2023-10-11T06:57:57.926Z,14.86
2023-10-11T07:00:38.811Z,15.04
2023-10-11T07:03:29.575Z,15.23
2023-10-11T07:06:13.184Z,15.47
2023-10-11T07:08:54.625Z,15.75
2023-10-11T07:11:49.634Z,16.14
2023-10-11T07:14:29.601Z,16.68
2023-10-11T07:17:09.520Z,17.23
2023-10-11T07:19:51.956Z,17.83
2023-10-11T07:22:28.379Z,18.71
2023-10-11T07:25:27.224Z,19.49
2023-10-11T07:28:04.495Z,20.55
2023-10-11T07:30:43.363Z,21.47
2023-10-11T07:33:22.598Z,22.33
2023-10-11T07:36:00.655Z,23.12
2023-10-11T07:38:37.088Z,23.74
2023-10-11T07:41:19.858Z,24.20
2023-10-11T07:43:57.697Z,24.58
2023-10-11T07:46:41.537Z,24.92
2023-10-11T07:49:24.539Z,25.23
2023-10-11T07:52:07.446Z,25.48
2023-10-11T07:54:44.799Z,25.75
2023-10-11T07:57:26.386Z,25.91
2023-10-11T08:00:18.159Z,26.02
2023-10-11T08:03:04.640Z,26.07
2023-10-11T08:05:47.171Z,26.19
2023-10-11T08:08:25.403Z,26.30
2023-10-11T08:11:07.571Z,26.38
2023-10-11T08:13:45.634Z,26.45
2023-10-11T08:16:24.866Z,26.47
2023-10-11T08:19:01.767Z,26.45
2023-10-11T08:21:38.259Z,26.35
2023-10-11T08:24:17.673Z,26.30
2023-10-11T08:26:54.538Z,26.23
2023-10-11T08:29:31.113Z,26.15
2023-10-11T08:32:08.622Z,26.05
2023-10-11T08:34:48.962Z,25.90
2023-10-11T08:37:25.274Z,25.79
2023-10-11T08:40:10.258Z,25.64
2023-10-11T08:42:52.645Z,25.44
2023-10-11T08:45:36.524Z,25.23
2023-10-11T08:48:13.740Z,25.00
2023-10-11T08:50:54.912Z,24.81
2023-10-11T08:53:32.971Z,24.64
2023-10-11T08:58:24.792Z,24.44
2023-10-11T09:01:02.588Z,24.30
2023-10-11T09:03:42.377Z,24.08
2023-10-11T09:06:28.627Z,23.85
2023-10-11T09:09:05.879Z,23.55
2023-10-11T09:11:53.994Z,23.26
2023-10-11T09:14:30.775Z,22.97
2023-10-11T09:17:21.173Z,22.72
2023-10-11T09:20:01.252Z,22.45
2023-10-11T09:22:54.331Z,22.24
2023-10-11T09:25:35.023Z,22.08
2023-10-11T09:28:23.328Z,21.95
2023-10-11T09:31:16.480Z,21.85
2023-10-11T09:33:57.194Z,21.77
2023-10-11T09:36:34.487Z,21.70
2023-10-11T09:39:16.560Z,21.64
2023-10-11T09:41:57.405Z,21.60
2023-10-11T09:44:41.321Z,21.59
2023-10-11T09:47:18.763Z,21.60
2023-10-11T09:49:55.917Z,21.63
2023-10-11T09:52:36.888Z,21.65
2023-10-11T09:55:21.476Z,21.67
2023-10-11T09:58:20.965Z,21.70
2023-10-11T10:01:12.664Z,21.73
2023-10-11T10:03:54.565Z,21.77
2023-10-11T10:06:31.477Z,21.80
2023-10-11T10:09:28.083Z,21.84
2023-10-11T10:12:27.418Z,21.88
2023-10-11T10:15:15.131Z,21.94
2023-10-11T10:18:24.591Z,22.00
2023-10-11T10:21:06.282Z,22.05
2023-10-11T10:23:43.611Z,22.09
2023-10-11T10:26:45.003Z,22.13
2023-10-11T10:29:21.258Z,22.18
2023-10-11T10:32:12.313Z,22.20
2023-10-11T10:34:48.964Z,22.22
2023-10-11T10:37:58.425Z,22.24
2023-10-11T10:40:38.710Z,22.28
2023-10-11T10:43:23.114Z,22.32
2023-10-11T10:46:01.036Z,22.34
2023-10-11T10:48:41.957Z,22.32
2023-10-11T10:51:18.325Z,22.33
2023-10-11T10:53:54.827Z,22.33
2023-10-11T10:56:31.783Z,22.35
2023-10-11T10:59:15.348Z,22.36
2023-10-11T11:01:54.366Z,22.38
2023-10-11T11:04:34.084Z,22.42
2023-10-11T11:07:13.584Z,22.48
2023-10-11T11:09:49.995Z,22.54
2023-10-11T11:12:30.381Z,22.60
2023-10-11T11:15:10.467Z,22.68
2023-10-11T11:17:55.344Z,22.75
2023-10-11T11:20:42.111Z,22.83
2023-10-11T11:23:32.831Z,22.90
2023-10-11T11:26:31.485Z,22.95
2023-10-11T11:29:20.925Z,22.99
2023-10-11T11:32:00.575Z,23.02
2023-10-11T11:34:38.789Z,23.04
2023-10-11T11:37:24.706Z,23.06
2023-10-11T11:40:15.886Z,23.07
2023-10-11T11:42:52.242Z,23.08
2023-10-11T11:45:31.123Z,23.05
2023-10-11T11:48:09.300Z,22.96
2023-10-11T11:50:46.495Z,22.89
2023-10-11T11:53:23.390Z,22.82
2023-10-11T11:56:02.146Z,22.76
2023-10-11T11:58:38.428Z,22.72
2023-10-11T12:01:19.267Z,22.65
2023-10-11T12:03:56.770Z,22.56
2023-10-11T12:06:36.538Z,22.47
2023-10-11T12:09:22.231Z,22.43
2023-10-11T12:12:03.834Z,22.40
2023-10-11T12:14:41.179Z,22.41
2023-10-11T12:17:17.597Z,22.42
2023-10-11T12:19:55.332Z,22.46
2023-10-11T12:22:32.236Z,22.51
2023-10-11T12:25:10.391Z,22.56
2023-10-11T12:27:47.168Z,22.60
2023-10-11T12:30:23.853Z,22.64
2023-10-11T12:33:00.296Z,22.66
2023-10-11T12:35:38.211Z,22.66
2023-10-11T12:38:16.269Z,22.66
2023-10-11T12:40:52.663Z,22.66
2023-10-11T12:43:30.774Z,22.67
2023-10-11T12:46:07.753Z,22.68
2023-10-11T12:48:44.052Z,22.72
2023-10-11T12:51:20.382Z,22.74
2023-10-11T12:53:57.260Z,22.77
2023-10-11T12:56:33.828Z,22.80
2023-10-11T12:59:14.097Z,22.84
2023-10-11T13:01:53.806Z,22.86
2023-10-11T13:04:33.824Z,22.87
2023-10-11T13:07:15.410Z,22.86
2023-10-11T13:09:54.796Z,22.85
2023-10-11T13:12:39.020Z,22.86
2023-10-11T13:15:22.586Z,22.86
2023-10-11T13:17:59.171Z,22.86
2023-10-11T13:20:37.017Z,22.87
2023-10-11T13:23:13.719Z,22.88
2023-10-11T13:25:50.156Z,22.88
2023-10-11T13:28:28.049Z,22.88
2023-10-11T13:31:07.920Z,22.87
2023-10-11T13:33:45.468Z,22.87
2023-10-11T13:36:23.281Z,22.87
2023-10-11T13:39:00.798Z,22.86
2023-10-11T13:41:37.978Z,22.84
2023-10-11T13:44:14.284Z,22.81
2023-10-11T13:46:53.529Z,22.78
2023-10-11T13:49:34.444Z,22.76
2023-10-11T13:52:11.124Z,22.74
2023-10-11T13:54:52.549Z,22.73
2023-10-11T13:57:27.170Z,22.74
2023-10-11T14:00:24.980Z,22.77
2023-10-11T14:03:25.738Z,22.78
2023-10-11T14:06:31.823Z,22.77
2023-10-11T14:09:17.979Z,22.74
2023-10-11T14:11:57.187Z,22.71
2023-10-11T14:14:40.969Z,22.67
2023-10-11T14:17:18.051Z,22.62
2023-10-11T14:19:54.872Z,22.56
2023-10-11T14:22:31.103Z,22.48
2023-10-11T14:25:09.562Z,22.41
2023-10-11T14:27:47.321Z,22.34
2023-10-11T14:30:25.093Z,22.28
2023-10-11T14:33:01.867Z,22.21
2023-10-11T14:35:39.997Z,22.16
2023-10-11T14:38:17.799Z,22.10
2023-10-11T14:40:54.184Z,22.07
2023-10-11T14:43:30.556Z,22.06
2023-10-11T14:46:09.153Z,22.07
2023-10-11T14:48:48.289Z,22.07
2023-10-11T14:51:25.557Z,22.05
2023-10-11T14:54:01.864Z,22.03
2023-10-11T14:56:39.113Z,22.01
2023-10-11T14:59:15.468Z,21.97
2023-10-11T15:01:51.964Z,21.92
2023-10-11T15:04:28.420Z,21.85
2023-10-11T15:07:07.969Z,21.77
2023-10-11T15:09:44.488Z,21.67
2023-10-11T15:12:22.067Z,21.57
2023-10-11T15:15:00.379Z,21.46
2023-10-11T15:17:36.760Z,21.33
2023-10-11T15:20:15.323Z,21.20
2023-10-11T15:22:53.252Z,21.05
2023-10-11T15:25:29.992Z,20.90
2023-10-11T15:28:07.589Z,20.76
2023-10-11T15:30:43.979Z,20.61
2023-10-11T15:33:21.415Z,20.45
2023-10-11T15:36:02.224Z,20.29
2023-10-11T15:39:30.716Z,20.13
2023-10-11T15:42:09.938Z,19.93
2023-10-11T15:44:48.284Z,19.77
2023-10-11T15:47:26.592Z,19.61
2023-10-11T15:50:05.400Z,19.46
2023-10-11T15:52:43.152Z,19.31
2023-10-11T15:55:23.843Z,19.19
2023-10-11T15:58:00.737Z,19.05
2023-10-11T16:00:37.956Z,18.90
2023-10-11T16:03:15.714Z,18.75
2023-10-11T16:05:52.564Z,18.61
2023-10-11T16:08:29.163Z,18.48
2023-10-11T16:11:14.542Z,18.37
2023-10-11T16:13:51.411Z,18.25
2023-10-11T16:16:28.202Z,18.14
2023-10-11T16:19:04.781Z,18.03
2023-10-11T16:21:44.151Z,17.94
2023-10-11T16:24:20.939Z,17.83
2023-10-11T16:26:57.909Z,17.73
2023-10-11T16:29:34.254Z,17.64
2023-10-11T16:32:11.141Z,17.57
2023-10-11T16:34:47.442Z,17.49
2023-10-11T16:37:23.937Z,17.43
2023-10-11T16:40:01.196Z,17.37
2023-10-11T16:42:37.815Z,17.30
2023-10-11T16:45:16.820Z,17.23
2023-10-11T16:47:53.499Z,17.17
2023-10-11T16:50:35.167Z,17.12
2023-10-11T16:53:13.755Z,17.07
2023-10-11T16:55:51.528Z,17.03
2023-10-11T16:58:28.268Z,16.99
2023-10-11T17:01:05.592Z,16.95
2023-10-11T17:03:42.745Z,16.92
2023-10-11T17:06:19.279Z,16.90
2023-10-11T17:08:55.947Z,16.88
2023-10-11T17:11:32.896Z,16.86
2023-10-11T17:14:09.955Z,16.85
2023-10-11T17:16:47.828Z,16.85
2023-10-11T17:19:24.149Z,16.83
2023-10-11T17:22:00.335Z,16.83
2023-10-11T17:24:36.955Z,16.85
2023-10-11T17:27:13.682Z,16.85
2023-10-11T17:29:49.973Z,16.83
2023-10-11T17:32:26.488Z,16.80
2023-10-11T17:35:07.306Z,16.77
2023-10-11T17:37:46.578Z,16.74
2023-10-11T17:40:28.673Z,16.70
2023-10-11T17:43:07.819Z,16.66
2023-10-11T17:45:44.780Z,16.60
2023-10-11T17:48:21.503Z,16.53
2023-10-11T17:50:58.302Z,16.46
2023-10-11T17:53:34.690Z,16.37
2023-10-11T17:56:16.727Z,16.29
2023-10-11T17:58:53.683Z,16.21
2023-10-11T18:01:30.046Z,16.14
2023-10-11T18:04:07.571Z,16.07
2023-10-11T18:06:44.255Z,15.97
2023-10-11T18:09:20.814Z,15.88
2023-10-11T18:11:57.421Z,15.79
2023-10-11T18:14:34.275Z,15.69
2023-10-11T18:17:13.201Z,15.60
2023-10-11T18:19:51.983Z,15.51
2023-10-11T18:22:30.658Z,15.43
2023-10-11T18:25:10.918Z,15.38
2023-10-11T18:27:52.936Z,15.31
2023-10-11T18:30:31.551Z,15.26
2023-10-11T18:33:09.476Z,15.20
2023-10-11T18:35:47.520Z,15.14
2023-10-11T18:38:25.364Z,15.07
2023-10-11T18:41:06.405Z,15.00
2023-10-11T18:43:44.050Z,14.94
2023-10-11T18:46:23.406Z,14.87
2023-10-11T18:48:59.953Z,14.80
2023-10-11T18:51:37.468Z,14.73
2023-10-11T18:54:16.658Z,14.64
2023-10-11T18:56:54.805Z,14.57
2023-10-11T18:59:31.355Z,14.50
2023-10-11T19:02:07.948Z,14.43
2023-10-11T19:04:44.559Z,14.36
2023-10-11T19:07:21.144Z,14.29
2023-10-11T19:09:57.957Z,14.22
2023-10-11T19:12:36.618Z,14.15
2023-10-11T19:15:17.961Z,14.09
2023-10-11T19:17:56.874Z,14.03
2023-10-11T19:20:33.489Z,13.97
2023-10-11T19:23:11.905Z,13.91
2023-10-11T19:25:55.647Z,13.85
2023-10-11T19:28:32.418Z,13.80
2023-10-11T19:31:09.609Z,13.73
2023-10-11T19:33:46.040Z,13.68
2023-10-11T19:36:23.182Z,13.62
2023-10-11T19:39:01.189Z,13.56
2023-10-11T19:41:38.738Z,13.51
2023-10-11T19:44:15.299Z,13.46
2023-10-11T19:46:51.755Z,13.41
2023-10-11T19:49:29.373Z,13.37
2023-10-11T19:52:06.364Z,13.33
2023-10-11T19:54:42.951Z,13.30
2023-10-11T19:57:19.422Z,13.28
2023-10-11T19:59:59.278Z,13.25
2023-10-11T20:02:36.930Z,13.22
2023-10-11T20:05:18.290Z,13.18
2023-10-11T20:08:14.498Z,13.16
2023-10-11T20:11:00.591Z,13.15
2023-10-11T20:13:40.924Z,13.13
2023-10-11T20:16:17.950Z,13.12
2023-10-11T20:18:54.917Z,13.10
2023-10-11T20:21:44.523Z,13.09
2023-10-11T20:24:21.965Z,13.08
2023-10-11T20:26:58.370Z,13.08
2023-10-11T20:29:37.829Z,13.09
2023-10-11T20:32:14.284Z,13.09
2023-10-11T20:34:50.833Z,13.09
2023-10-11T20:37:28.011Z,13.10
2023-10-11T20:40:14.507Z,13.11
2023-10-11T20:42:54.632Z,13.10
2023-10-11T20:45:33.921Z,13.09
2023-10-11T20:48:12.777Z,13.08
2023-10-11T20:50:51.271Z,13.07
2023-10-11T20:53:27.822Z,13.06
2023-10-11T20:56:07.653Z,13.05
2023-10-11T20:58:56.525Z,13.04
2023-10-11T21:01:37.930Z,13.02
2023-10-11T21:04:17.062Z,13.01
2023-10-11T21:06:56.312Z,13.00
2023-10-11T21:09:32.803Z,12.98
2023-10-11T21:12:13.897Z,12.96
2023-10-11T21:14:51.079Z,12.95
2023-10-11T21:17:30.158Z,12.92
2023-10-11T21:20:11.759Z,12.89
2023-10-11T21:22:48.842Z,12.87
2023-10-11T21:25:26.457Z,12.85
2023-10-11T21:28:06.527Z,12.84
2023-10-11T21:30:48.449Z,12.82
2023-10-11T21:33:26.120Z,12.78
2023-10-11T21:36:08.261Z,12.75
2023-10-11T21:38:45.966Z,12.73
2023-10-11T21:41:22.867Z,12.71
2023-10-11T21:43:59.744Z,12.68
2023-10-11T21:46:39.302Z,12.66
2023-10-11T21:49:15.734Z,12.64
2023-10-11T21:51:51.966Z,12.62
2023-10-11T21:54:30.326Z,12.60
2023-10-11T21:57:06.794Z,12.58
2023-10-11T21:59:43.238Z,12.55
2023-10-11T22:02:19.780Z,12.53
2023-10-11T22:04:56.013Z,12.50
2023-10-11T22:07:33.596Z,12.47
2023-10-11T22:10:12.514Z,12.44
2023-10-11T22:12:53.547Z,12.40
2023-10-11T22:15:31.210Z,12.37
2023-10-11T22:18:08.277Z,12.37
2023-10-11T22:20:45.647Z,12.36
2023-10-11T22:23:22.130Z,12.34
2023-10-11T22:25:58.619Z,12.33
2023-10-11T22:28:34.963Z,12.31
2023-10-11T22:31:13.001Z,12.28
2023-10-11T22:33:49.582Z,12.26
2023-10-11T22:36:28.374Z,12.25
2023-10-11T22:39:06.023Z,12.23
2023-10-11T22:41:42.482Z,12.23
2023-10-11T22:44:20.001Z,12.25
2023-10-11T22:46:56.528Z,12.26
2023-10-11T22:49:33.917Z,12.27
2023-10-11T22:52:11.567Z,12.28
2023-10-11T22:54:47.904Z,12.30
2023-10-11T22:57:24.531Z,12.32
2023-10-11T23:00:01.034Z,12.34
2023-10-11T23:02:37.414Z,12.38
2023-10-11T23:05:14.681Z,12.42
2023-10-11T23:07:52.078Z,12.47
2023-10-11T23:10:28.650Z,12.52
2023-10-11T23:13:07.844Z,12.58
2023-10-11T23:15:52.966Z,12.62
2023-10-11T23:18:30.983Z,12.67
2023-10-11T23:21:17.112Z,12.70
2023-10-11T23:23:55.608Z,12.75
2023-10-11T23:26:35.849Z,12.81
2023-10-11T23:29:14.116Z,12.86
2023-10-11T23:31:51.862Z,12.91
2023-10-11T23:34:28.411Z,12.96
2023-10-11T23:37:06.570Z,13.00
2023-10-11T23:40:02.852Z,13.05
2023-10-11T23:42:40.593Z,13.11
2023-10-11T23:45:23.380Z,13.19
2023-10-11T23:48:00.014Z,13.27
2023-10-11T23:50:38.847Z,13.33
2023-10-11T23:53:19.931Z,13.38
2023-10-11T23:55:56.480Z,13.43
2023-10-11T23:58:32.987Z,13.47
